createdAt,value
2022-10-11T00:00:10.878Z,9.55
2022-10-11T00:02:37.756Z,9.27
2022-10-11T00:05:05.037Z,9.43
2022-10-11T00:07:31.720Z,10.13
2022-10-11T00:09:58.585Z,9.75
2022-10-11T00:12:25.517Z,10.40
2022-10-11T00:14:52.083Z,9.80
2022-10-11T00:17:18.910Z,10.25
2022-10-11T00:19:45.530Z,10.63
2022-10-11T00:22:12.256Z,8.90
2022-10-11T00:24:38.917Z,9.90
2022-10-11T00:27:05.589Z,10.82
2022-10-11T00:29:32.180Z,11.27
2022-10-11T00:31:59.020Z,10.43
2022-10-11T00:34:25.685Z,10.57
2022-10-11T00:36:52.273Z,11.25
2022-10-11T00:39:18.998Z,10.32
2022-10-11T00:41:47.833Z,11.50
2022-10-11T00:44:19.985Z,11.00
2022-10-11T00:49:28.221Z,11.45
2022-10-11T00:52:04.897Z,11.27
2022-10-11T00:54:36.225Z,11.65
2022-10-11T00:57:07.109Z,11.70
2022-10-11T00:59:41.599Z,11.85
2022-10-11T01:02:10.156Z,12.80
2022-10-11T01:04:36.952Z,12.20
2022-10-11T01:07:03.994Z,12.85
2022-10-11T01:09:31.468Z,12.90
2022-10-11T01:12:01.362Z,12.90
2022-10-11T01:15:02.859Z,13.38
2022-10-11T01:17:45.188Z,13.95
2022-10-11T01:23:26.828Z,14.37
2022-10-11T01:26:10.253Z,14.18
2022-10-11T01:28:36.902Z,13.15
2022-10-11T01:31:28.774Z,13.82
2022-10-11T01:34:02.221Z,15.57
2022-10-11T01:36:38.238Z,15.43
2022-10-11T01:39:24.413Z,16.13
2022-10-11T01:41:55.628Z,16.48
2022-10-11T01:44:26.036Z,16.75
2022-10-11T01:46:53.404Z,17.08
2022-10-11T01:49:20.569Z,16.60
2022-10-11T01:51:52.523Z,16.98
2022-10-11T01:55:09.156Z,17.17
2022-10-11T01:57:51.327Z,17.40
2022-10-11T02:00:24.431Z,17.15
2022-10-11T02:03:12.180Z,17.20
2022-10-11T02:05:46.539Z,18.50
2022-10-11T02:08:55.133Z,18.17
2022-10-11T02:11:27.788Z,18.63
2022-10-11T02:14:04.928Z,18.27
2022-10-11T02:16:37.326Z,17.73
2022-10-11T02:19:06.649Z,18.88
2022-10-11T02:21:36.213Z,19.25
2022-10-11T02:24:18.321Z,19.10
2022-10-11T02:26:52.857Z,18.52
2022-10-11T02:29:22.337Z,18.90
2022-10-11T02:31:51.391Z,20.13
2022-10-11T02:34:23.212Z,18.23
2022-10-11T02:37:24.842Z,19.90
2022-10-11T02:40:01.560Z,19.40
2022-10-11T02:42:34.128Z,18.92
2022-10-11T02:45:18.959Z,20.63
2022-10-11T02:47:46.977Z,18.17
2022-10-11T02:50:15.538Z,19.05
2022-10-11T02:52:42.280Z,18.70
2022-10-11T02:55:10.019Z,20.33
2022-10-11T02:57:36.861Z,20.17
2022-10-11T03:00:05.150Z,20.60
2022-10-11T03:02:31.706Z,20.60
2022-10-11T03:04:58.244Z,20.83
2022-10-11T03:07:25.007Z,20.23
2022-10-11T03:09:51.932Z,21.15
2022-10-11T03:12:18.801Z,21.42
2022-10-11T03:14:45.631Z,22.05
2022-10-11T03:17:35.225Z,20.13
2022-10-11T03:19:59.428Z,22.42
2022-10-11T03:22:26.140Z,21.63
2022-10-11T03:24:52.834Z,23.13
2022-10-11T03:27:20.233Z,21.65
2022-10-11T03:29:46.875Z,22.20
2022-10-11T03:32:13.808Z,21.88
2022-10-11T03:34:40.724Z,23.08
2022-10-11T03:37:07.544Z,21.63
2022-10-11T03:39:34.389Z,23.13
2022-10-11T03:42:01.281Z,23.25
2022-10-11T03:44:28.054Z,23.45
2022-10-11T03:46:54.842Z,22.27
2022-10-11T03:49:21.991Z,23.98
2022-10-11T03:51:48.758Z,22.23
2022-10-11T03:54:15.385Z,24.58
2022-10-11T03:56:42.049Z,23.65
2022-10-11T03:59:09.127Z,23.13
2022-10-11T04:01:38.385Z,23.40
2022-10-11T04:04:05.681Z,23.63
2022-10-11T04:06:32.819Z,25.65
2022-10-11T04:08:59.947Z,25.05
2022-10-11T04:11:27.167Z,23.92
2022-10-11T04:13:53.885Z,25.52
2022-10-11T04:16:20.608Z,25.67
2022-10-11T04:18:47.380Z,25.15
2022-10-11T04:21:14.068Z,25.65
2022-10-11T04:23:40.774Z,25.48
2022-10-11T04:26:09.155Z,23.60
2022-10-11T04:28:36.384Z,24.88
2022-10-11T04:31:05.162Z,24.25
2022-10-11T04:33:32.073Z,24.25
2022-10-11T04:35:58.932Z,26.35
2022-10-11T04:38:28.636Z,27.38
2022-10-11T04:40:55.521Z,24.58
2022-10-11T04:43:22.307Z,24.25
2022-10-11T04:45:51.242Z,27.98
2022-10-11T04:48:21.333Z,26.08
2022-10-11T04:50:48.254Z,25.40
2022-10-11T04:53:15.412Z,26.88
2022-10-11T04:55:42.283Z,27.15
2022-10-11T04:58:08.917Z,26.67
2022-10-11T05:00:35.765Z,26.23
2022-10-11T05:03:02.401Z,26.77
2022-10-11T05:05:29.083Z,28.80
2022-10-11T05:07:55.742Z,26.50
2022-10-11T05:10:22.395Z,28.35
2022-10-11T05:12:49.007Z,27.30
2022-10-11T05:15:15.693Z,27.20
2022-10-11T05:17:42.215Z,28.48
2022-10-11T05:20:09.665Z,26.80
2022-10-11T05:22:36.438Z,27.27
2022-10-11T05:25:03.562Z,31.45
2022-10-11T05:27:30.232Z,29.88
2022-10-11T05:29:56.802Z,30.98
2022-10-11T05:32:26.721Z,31.55
2022-10-11T05:34:54.715Z,25.60
2022-10-11T05:37:21.397Z,26.88
2022-10-11T05:39:48.311Z,26.23
2022-10-11T05:42:15.112Z,27.92
2022-10-11T05:44:41.977Z,26.08
2022-10-11T05:47:08.811Z,26.35
2022-10-11T05:49:35.828Z,28.02
2022-10-11T05:52:02.433Z,26.67
2022-10-11T05:54:31.070Z,24.95
2022-10-11T05:56:57.941Z,26.10
2022-10-11T05:59:24.661Z,26.38
2022-10-11T06:01:51.340Z,26.52
2022-10-11T06:04:19.163Z,25.90
2022-10-11T06:06:46.132Z,26.42
2022-10-11T06:09:13.063Z,24.75
2022-10-11T06:11:41.393Z,24.75
2022-10-11T06:14:09.509Z,23.88
2022-10-11T06:16:36.094Z,23.15
2022-10-11T06:19:02.994Z,23.67
2022-10-11T06:21:29.702Z,23.13
2022-10-11T06:24:01.134Z,22.20
2022-10-11T06:26:29.551Z,22.40
2022-10-11T06:28:56.491Z,22.83
2022-10-11T06:31:23.256Z,22.75
2022-10-11T06:33:50.087Z,20.45
2022-10-11T06:36:17.236Z,21.90
2022-10-11T06:38:45.388Z,21.38
2022-10-11T06:41:27.090Z,20.42
2022-10-11T06:43:54.100Z,20.67
2022-10-11T06:46:22.880Z,20.33
2022-10-11T06:48:50.196Z,20.80
2022-10-11T06:51:19.114Z,19.30
2022-10-11T06:53:59.742Z,20.95
2022-10-11T06:56:28.174Z,19.42
2022-10-11T06:58:56.144Z,19.95
2022-10-11T07:01:24.045Z,19.77
2022-10-11T07:03:55.011Z,19.02
2022-10-11T07:06:26.962Z,21.13
2022-10-11T07:08:54.916Z,19.00
2022-10-11T07:11:24.341Z,18.73
2022-10-11T07:13:55.591Z,17.25
2022-10-11T07:16:23.412Z,18.33
2022-10-11T07:18:58.813Z,19.27
2022-10-11T07:21:27.606Z,19.98
2022-10-11T07:23:54.257Z,20.33
2022-10-11T07:26:21.047Z,20.58
2022-10-11T07:28:48.051Z,17.00
2022-10-11T07:31:18.588Z,18.77
2022-10-11T07:33:45.378Z,17.92
2022-10-11T07:36:12.918Z,19.00
2022-10-11T07:38:41.249Z,20.38
2022-10-11T07:41:09.739Z,17.15
2022-10-11T07:43:37.654Z,19.50
2022-10-11T07:46:05.843Z,16.30
2022-10-11T07:48:36.716Z,17.77
2022-10-11T07:51:07.871Z,16.98
2022-10-11T07:53:45.267Z,16.13
2022-10-11T07:56:13.400Z,16.77
2022-10-11T07:58:41.856Z,15.82
2022-10-11T08:01:10.433Z,18.20
2022-10-11T08:03:38.464Z,17.10
2022-10-11T08:06:09.208Z,17.90
2022-10-11T08:08:37.265Z,15.98
2022-10-11T08:11:04.375Z,15.65
2022-10-11T08:13:31.100Z,16.20
2022-10-11T08:15:57.959Z,14.55
2022-10-11T08:18:24.979Z,14.98
2022-10-11T08:20:52.170Z,16.50
2022-10-11T08:23:19.594Z,16.60
2022-10-11T08:25:47.712Z,16.45
2022-10-11T08:28:17.651Z,15.15
2022-10-11T08:30:52.621Z,13.50
2022-10-11T08:33:21.839Z,14.10
2022-10-11T08:35:49.203Z,15.38
2022-10-11T08:38:16.566Z,16.70
2022-10-11T08:40:49.581Z,15.00
2022-10-11T08:43:32.460Z,14.75
2022-10-11T08:46:03.572Z,14.02
2022-10-11T08:48:36.970Z,14.98
2022-10-11T08:51:13.953Z,15.90
2022-10-11T08:53:51.752Z,14.77
2022-10-11T08:56:20.697Z,15.88
2022-10-11T08:58:55.038Z,15.13
2022-10-11T09:01:25.036Z,14.82
2022-10-11T09:03:52.699Z,14.45
2022-10-11T09:06:31.207Z,13.82
2022-10-11T09:09:31.030Z,14.55
2022-10-11T09:12:06.265Z,14.75
2022-10-11T09:14:54.272Z,13.98
2022-10-11T09:17:26.749Z,15.50
2022-10-11T09:20:31.871Z,14.43
2022-10-11T09:23:20.967Z,14.95
2022-10-11T09:26:01.701Z,14.82
2022-10-11T09:29:27.355Z,15.02
2022-10-11T09:31:56.071Z,14.90
2022-10-11T09:34:27.460Z,13.98
2022-10-11T09:37:03.686Z,15.00
2022-10-11T09:39:50.287Z,14.15
2022-10-11T09:42:17.226Z,13.27
2022-10-11T09:44:49.910Z,14.00
2022-10-11T09:47:27.225Z,14.07
2022-10-11T09:49:58.170Z,13.70
2022-10-11T09:52:25.813Z,14.52
2022-10-11T09:54:56.573Z,15.48
2022-10-11T09:57:23.214Z,12.93
2022-10-11T10:00:01.807Z,13.40
2022-10-11T10:02:30.839Z,12.95
2022-10-11T10:05:09.591Z,13.35
2022-10-11T10:07:41.054Z,12.23
2022-10-11T10:10:43.268Z,13.75
2022-10-11T10:13:51.570Z,13.50
2022-10-11T10:16:26.408Z,13.57
2022-10-11T10:19:16.008Z,14.85
2022-10-11T10:21:49.340Z,13.35
2022-10-11T10:24:37.187Z,12.10
2022-10-11T10:27:23.030Z,13.60
2022-10-11T10:30:10.368Z,13.07
2022-10-11T10:32:53.317Z,13.85
2022-10-11T10:35:29.391Z,13.20
2022-10-11T10:38:08.166Z,14.60
2022-10-11T10:40:45.483Z,13.48
2022-10-11T10:43:23.869Z,13.63
2022-10-11T10:46:12.058Z,13.45
2022-10-11T10:49:52.473Z,12.20
2022-10-11T10:52:05.392Z,12.90
2022-10-11T10:54:50.535Z,13.68
2022-10-11T10:57:50.529Z,12.70
2022-10-11T11:00:22.732Z,12.50
2022-10-11T11:03:14.218Z,14.52
2022-10-11T11:05:58.011Z,12.53
2022-10-11T11:09:02.029Z,13.00
2022-10-11T11:11:41.682Z,12.95
2022-10-11T11:14:21.741Z,14.38
2022-10-11T11:17:07.278Z,12.57
2022-10-11T11:19:33.846Z,13.13
2022-10-11T11:22:12.535Z,13.70
2022-10-11T11:25:07.293Z,12.98
2022-10-11T11:27:55.624Z,12.35
2022-10-11T11:31:02.492Z,12.50
2022-10-11T11:33:48.691Z,13.55
2022-10-11T11:36:26.214Z,12.32
2022-10-11T11:38:59.805Z,12.23
2022-10-11T11:41:33.429Z,13.77
2022-10-11T11:44:35.308Z,12.45
2022-10-11T11:47:11.822Z,12.60
2022-10-11T11:52:23.226Z,12.50
2022-10-11T11:55:08.416Z,14.98
2022-10-11T11:57:53.142Z,13.80
2022-10-11T12:00:31.161Z,13.55
2022-10-11T12:06:14.645Z,15.00
2022-10-11T12:08:44.745Z,14.45
2022-10-11T12:11:40.229Z,11.80
2022-10-11T12:17:09.112Z,12.85
2022-10-11T12:19:38.495Z,14.52
2022-10-11T12:22:27.044Z,14.48
2022-10-11T12:25:21.267Z,13.98
2022-10-11T12:27:52.002Z,12.75
2022-10-11T12:30:53.326Z,13.27
2022-10-11T12:33:45.608Z,13.13
2022-10-11T12:36:37.422Z,12.95
2022-10-11T12:39:19.848Z,13.65
2022-10-11T12:41:55.437Z,13.82
2022-10-11T12:44:30.065Z,14.05
2022-10-11T12:47:02.731Z,15.02
2022-10-11T12:49:41.569Z,13.93
2022-10-11T12:52:17.365Z,13.93
2022-10-11T12:55:14.602Z,12.55
2022-10-11T12:58:22.568Z,12.98
2022-10-11T13:00:52.342Z,12.65
2022-10-11T13:03:44.503Z,12.45
2022-10-11T13:06:26.022Z,13.32
2022-10-11T13:09:03.103Z,12.07
2022-10-11T13:11:33.781Z,13.95
2022-10-11T13:14:24.796Z,12.90
2022-10-11T13:17:00.390Z,13.70
2022-10-11T13:19:28.449Z,13.82
2022-10-11T13:21:58.944Z,13.65
2022-10-11T13:24:27.748Z,12.25
2022-10-11T13:26:57.070Z,13.60
2022-10-11T13:29:38.350Z,12.85
2022-10-11T13:32:36.801Z,14.15
2022-10-11T13:35:14.728Z,13.30
2022-10-11T13:37:46.170Z,12.98
2022-10-11T13:40:15.939Z,13.30
2022-10-11T13:42:43.485Z,14.65
2022-10-11T13:45:14.432Z,12.50
2022-10-11T13:47:41.156Z,13.65
2022-10-11T13:50:19.293Z,12.90
2022-10-11T13:53:12.041Z,11.10
2022-10-11T13:55:41.687Z,13.45
2022-10-11T13:58:32.660Z,14.05
2022-10-11T14:01:02.805Z,12.82
2022-10-11T14:03:43.665Z,13.15
2022-10-11T14:06:11.073Z,13.55
2022-10-11T14:08:43.202Z,14.82
2022-10-11T14:11:12.307Z,15.27
2022-10-11T14:13:47.490Z,13.85
2022-10-11T14:16:30.156Z,14.60
2022-10-11T14:18:59.799Z,12.77
2022-10-11T14:21:31.423Z,14.38
2022-10-11T14:24:10.679Z,14.82
2022-10-11T14:26:43.756Z,15.98
2022-10-11T14:29:13.354Z,14.95
2022-10-11T14:31:42.260Z,16.45
2022-10-11T14:34:16.473Z,17.23
2022-10-11T14:36:43.100Z,16.40
2022-10-11T14:39:16.537Z,17.35
2022-10-11T14:41:43.619Z,16.48
2022-10-11T14:44:10.578Z,16.77
2022-10-11T14:46:38.821Z,17.00
2022-10-11T14:49:36.250Z,18.33
2022-10-11T14:52:05.885Z,17.10
2022-10-11T14:54:33.336Z,17.48
2022-10-11T14:57:02.552Z,17.23
2022-10-11T14:59:36.398Z,18.13
2022-10-11T15:02:05.636Z,18.10
2022-10-11T15:04:32.997Z,18.40
2022-10-11T15:07:00.079Z,16.95
2022-10-11T15:09:27.001Z,17.25
2022-10-11T15:11:55.083Z,17.98
2022-10-11T15:14:23.486Z,19.95
2022-10-11T15:16:50.491Z,18.13
2022-10-11T15:19:21.255Z,20.38
2022-10-11T15:21:48.689Z,20.58
2022-10-11T15:24:19.909Z,22.70
2022-10-11T15:26:47.988Z,25.00
2022-10-11T15:29:17.844Z,21.02
2022-10-11T15:31:45.048Z,23.77
2022-10-11T15:34:11.687Z,20.25
2022-10-11T15:36:38.602Z,20.13
2022-10-11T15:39:23.388Z,15.13
2022-10-11T15:41:49.934Z,15.57
2022-10-11T15:44:16.492Z,16.42
2022-10-11T15:46:43.851Z,15.10
2022-10-11T15:49:14.340Z,17.75
2022-10-11T15:51:41.967Z,18.77
2022-10-11T15:54:09.015Z,15.82
2022-10-11T15:56:35.929Z,17.77
2022-10-11T15:59:02.817Z,15.73
2022-10-11T16:01:29.530Z,14.00
2022-10-11T16:03:56.393Z,15.43
2022-10-11T16:06:23.562Z,15.20
2022-10-11T16:08:50.852Z,17.40
2022-10-11T16:11:17.544Z,14.00
2022-10-11T16:13:45.097Z,15.73
2022-10-11T16:16:12.449Z,15.07
2022-10-11T16:18:39.446Z,15.32
2022-10-11T16:21:09.810Z,15.38
2022-10-11T16:23:37.344Z,16.48
2022-10-11T16:26:07.633Z,15.88
2022-10-11T16:28:35.796Z,13.45
2022-10-11T16:31:08.129Z,16.10
2022-10-11T16:33:34.804Z,14.13
2022-10-11T16:36:26.056Z,14.48
2022-10-11T16:38:52.790Z,12.75
2022-10-11T16:41:19.365Z,14.90
2022-10-11T16:43:49.759Z,21.88
2022-10-11T16:46:16.734Z,18.70
2022-10-11T16:48:43.641Z,16.27
2022-10-11T16:51:10.498Z,14.55
2022-10-11T16:53:37.435Z,13.68
2022-10-11T16:56:09.060Z,16.67
2022-10-11T16:58:36.448Z,14.13
2022-10-11T17:01:08.192Z,14.52
2022-10-11T17:03:34.903Z,15.95
2022-10-11T17:06:01.889Z,15.93
2022-10-11T17:08:29.147Z,14.82
2022-10-11T17:10:57.902Z,17.27
2022-10-11T17:13:24.779Z,19.48
2022-10-11T17:15:51.394Z,16.67
2022-10-11T17:18:18.446Z,17.23
2022-10-11T17:20:45.061Z,18.02
2022-10-11T17:23:13.106Z,18.90
2022-10-11T17:25:44.659Z,17.60
2022-10-11T17:28:11.851Z,18.55
2022-10-11T17:30:41.736Z,18.55
2022-10-11T17:33:09.035Z,18.05
2022-10-11T17:35:38.584Z,18.48
2022-10-11T17:38:06.302Z,18.67
2022-10-11T17:40:33.245Z,18.17
2022-10-11T17:43:00.253Z,18.42
2022-10-11T17:45:26.863Z,19.00
2022-10-11T17:47:53.477Z,19.40
2022-10-11T17:50:20.220Z,20.90
2022-10-11T17:52:47.345Z,24.45
2022-10-11T17:55:15.285Z,20.67
2022-10-11T17:57:42.003Z,17.70
2022-10-11T18:00:09.409Z,17.92
2022-10-11T18:02:36.429Z,18.17
2022-10-11T18:05:03.308Z,19.80
2022-10-11T18:07:29.989Z,20.58
2022-10-11T18:09:57.029Z,20.23
2022-10-11T18:12:23.898Z,23.25
2022-10-11T18:14:51.275Z,21.88
2022-10-11T18:17:19.064Z,23.13
2022-10-11T18:19:45.683Z,24.23
2022-10-11T18:22:12.593Z,23.60
2022-10-11T18:24:39.380Z,24.77
2022-10-11T18:27:06.087Z,24.80
2022-10-11T18:29:32.793Z,26.45
2022-10-11T18:31:59.423Z,23.90
2022-10-11T18:34:26.231Z,26.70
2022-10-11T18:36:54.088Z,24.90
2022-10-11T18:39:22.069Z,27.15
2022-10-11T18:41:48.784Z,26.80
2022-10-11T18:44:16.567Z,27.73
2022-10-11T18:46:44.211Z,28.08
2022-10-11T18:49:11.139Z,26.20
2022-10-11T18:51:40.411Z,28.27
2022-10-11T18:54:08.387Z,25.95
2022-10-11T18:56:37.120Z,26.33
2022-10-11T18:59:05.676Z,27.13
2022-10-11T19:01:40.854Z,26.70
2022-10-11T19:04:09.541Z,27.40
2022-10-11T19:06:42.571Z,27.67
2022-10-11T19:09:17.800Z,27.88
2022-10-11T19:11:44.660Z,28.25
2022-10-11T19:14:14.912Z,27.55
2022-10-11T19:16:45.517Z,27.42
2022-10-11T19:19:13.017Z,27.70
2022-10-11T19:21:39.758Z,26.92
2022-10-11T19:24:07.415Z,27.42
2022-10-11T19:26:37.342Z,25.88
2022-10-11T19:29:14.680Z,28.13
2022-10-11T19:31:45.074Z,27.08
2022-10-11T19:34:12.008Z,26.98
2022-10-11T19:36:41.090Z,27.35
2022-10-11T19:39:07.825Z,29.92
2022-10-11T19:41:34.591Z,28.08
2022-10-11T19:44:01.236Z,27.92
2022-10-11T19:49:17.641Z,29.92
2022-10-11T19:51:44.841Z,27.45
2022-10-11T19:54:13.777Z,27.58
2022-10-11T19:56:42.508Z,27.63
2022-10-11T19:59:10.510Z,28.05
2022-10-11T20:01:38.014Z,28.63
2022-10-11T20:04:07.137Z,28.58
2022-10-11T20:06:38.642Z,28.35
2022-10-11T20:09:29.564Z,29.10
2022-10-11T20:11:56.221Z,28.60
2022-10-11T20:14:22.949Z,29.02
2022-10-11T20:16:50.734Z,28.58
2022-10-11T20:19:17.549Z,29.45
2022-10-11T20:21:45.244Z,28.90
2022-10-11T20:24:12.180Z,29.73
2022-10-11T20:26:39.384Z,28.83
2022-10-11T20:29:06.610Z,29.20
2022-10-11T20:31:34.958Z,28.77
2022-10-11T20:34:04.289Z,27.02
2022-10-11T20:36:32.160Z,28.92
2022-10-11T20:39:00.224Z,30.45
2022-10-11T20:41:31.737Z,28.73
2022-10-11T20:44:00.256Z,28.80
2022-10-11T20:46:30.021Z,27.90
2022-10-11T20:49:04.665Z,31.13
2022-10-11T20:51:33.589Z,29.60
2022-10-11T20:54:02.162Z,28.73
2022-10-11T20:56:29.989Z,32.78
2022-10-11T20:58:57.869Z,33.22
2022-10-11T21:01:37.164Z,30.63
2022-10-11T21:04:05.148Z,30.23
2022-10-11T21:06:32.857Z,31.13
2022-10-11T21:09:00.276Z,36.58
2022-10-11T21:11:28.890Z,37.78
2022-10-11T21:13:57.064Z,34.95
2022-10-11T21:16:23.867Z,32.60
2022-10-11T21:18:52.266Z,31.55
2022-10-11T21:21:19.533Z,31.45
2022-10-11T21:23:46.816Z,32.47
2022-10-11T21:26:16.778Z,29.90
2022-10-11T21:28:46.399Z,32.72
2022-10-11T21:31:16.591Z,32.88
2022-10-11T21:33:44.400Z,32.28
2022-10-11T21:36:19.489Z,34.28
2022-10-11T21:38:46.673Z,32.75
2022-10-11T21:41:16.847Z,32.50
2022-10-11T21:43:44.157Z,33.67
2022-10-11T21:46:14.037Z,32.72
2022-10-11T21:48:41.227Z,33.15
2022-10-11T21:53:41.186Z,37.55
2022-10-11T21:56:07.903Z,35.20
2022-10-11T21:58:34.584Z,38.85
2022-10-11T22:01:01.217Z,38.83
2022-10-11T22:03:27.896Z,32.90
2022-10-11T22:05:54.594Z,33.45
2022-10-11T22:08:21.396Z,34.67
2022-10-11T22:10:56.969Z,33.58
2022-10-11T22:13:24.960Z,35.30
2022-10-11T22:15:51.756Z,34.70
2022-10-11T22:18:18.743Z,35.00
2022-10-11T22:20:45.380Z,34.50
2022-10-11T22:23:12.074Z,35.83
2022-10-11T22:25:39.245Z,34.10
2022-10-11T22:28:07.193Z,34.75
2022-10-11T22:30:34.410Z,34.45
2022-10-11T22:33:01.071Z,33.65
2022-10-11T22:35:27.947Z,35.15
2022-10-11T22:37:54.700Z,36.15
2022-10-11T22:40:21.391Z,36.20
2022-10-11T22:42:48.121Z,35.35
2022-10-11T22:45:14.749Z,35.58
2022-10-11T22:47:41.467Z,35.65
2022-10-11T22:50:08.514Z,34.10
2022-10-11T22:52:35.189Z,37.00
2022-10-11T22:55:01.836Z,36.97
2022-10-11T22:57:28.515Z,40.15
2022-10-11T22:59:55.157Z,33.97
2022-10-11T23:02:21.714Z,34.60
2022-10-11T23:04:48.434Z,36.30
2022-10-11T23:07:15.043Z,34.25
2022-10-11T23:09:41.590Z,34.50
2022-10-11T23:12:08.621Z,34.00
2022-10-11T23:14:35.233Z,34.53
2022-10-11T23:17:01.851Z,35.13
2022-10-11T23:19:28.408Z,42.38
2022-10-11T23:21:55.039Z,37.90
2022-10-11T23:24:21.713Z,34.40
2022-10-11T23:26:48.322Z,36.08
2022-10-11T23:29:14.980Z,34.58
2022-10-11T23:31:41.581Z,34.47
2022-10-11T23:34:08.163Z,34.97
2022-10-11T23:36:34.782Z,34.15
2022-10-11T23:39:01.429Z,32.70
2022-10-11T23:41:29.418Z,34.50
2022-10-11T23:43:57.380Z,32.58
2022-10-11T23:46:24.313Z,38.25
2022-10-11T23:48:51.165Z,35.15
2022-10-11T23:51:17.811Z,34.50
2022-10-11T23:53:44.366Z,38.38
2022-10-11T23:56:11.782Z,36.63
2022-10-11T23:58:38.846Z,35.28
